sensor_id;sensor_type;location;lat;lon;timestamp;P1;durP1;ratioP1;P2;durP2;ratioP2
26191;SDS011;13935;55.672;37.764;2023-02-11T08:05:41;18.83;;;8.35;;
26191;SDS011;13935;55.672;37.764;2023-02-11T08:07:04;17.08;;;8.50;;
26191;SDS011;13935;55.672;37.764;2023-02-11T08:09:02;18.40;;;8.85;;
26191;SDS011;13935;55.672;37.764;2023-02-11T08:10:34;19.00;;;8.48;;
26191;SDS011;13935;55.672;37.764;2023-02-11T08:13:19;18.80;;;8.68;;
26191;SDS011;13935;55.672;37.764;2023-02-11T08:14:41;17.42;;;8.93;;
26191;SDS011;13935;55.672;37.764;2023-02-11T08:16:37;18.10;;;8.93;;
26191;SDS011;13935;55.672;37.764;2023-02-11T08:23:37;18.05;;;9.50;;
26191;SDS011;13935;55.672;37.764;2023-02-11T08:26:44;17.85;;;8.88;;
26191;SDS011;13935;55.672;37.764;2023-02-11T08:27:53;19.92;;;8.68;;
26191;SDS011;13935;55.672;37.764;2023-02-11T08:51:55;17.85;;;8.50;;
26191;SDS011;13935;55.672;37.764;2023-02-11T08:53:09;19.50;;;9.50;;
26191;SDS011;13935;55.672;37.764;2023-02-11T10:27:47;24.63;;;8.95;;
26191;SDS011;13935;55.672;37.764;2023-02-11T10:28:55;18.92;;;8.93;;
26191;SDS011;13935;55.672;37.764;2023-02-11T10:30:28;24.45;;;10.30;;
26191;SDS011;13935;55.672;37.764;2023-02-11T10:31:38;24.75;;;10.00;;
26191;SDS011;13935;55.672;37.764;2023-02-11T10:32:48;24.80;;;12.65;;
26191;SDS011;13935;55.672;37.764;2023-02-11T10:33:58;19.95;;;9.30;;
26191;SDS011;13935;55.672;37.764;2023-02-11T10:35:20;22.50;;;9.63;;
26191;SDS011;13935;55.672;37.764;2023-02-11T10:36:33;21.98;;;9.23;;
26191;SDS011;13935;55.672;37.764;2023-02-11T10:37:39;28.13;;;9.77;;
26191;SDS011;13935;55.672;37.764;2023-02-11T10:38:49;18.23;;;9.48;;
26191;SDS011;13935;55.672;37.764;2023-02-11T10:39:54;19.52;;;9.68;;
26191;SDS011;13935;55.672;37.764;2023-02-11T10:41:02;20.73;;;9.50;;
26191;SDS011;13935;55.672;37.764;2023-02-11T10:42:07;19.95;;;11.40;;
26191;SDS011;13935;55.672;37.764;2023-02-11T13:06:03;24.27;;;10.07;;
26191;SDS011;13935;55.672;37.764;2023-02-11T13:07:18;21.95;;;10.35;;
26191;SDS011;13935;55.672;37.764;2023-02-11T13:08:28;23.17;;;10.18;;
26191;SDS011;13935;55.672;37.764;2023-02-11T13:09:37;21.77;;;10.40;;
26191;SDS011;13935;55.672;37.764;2023-02-11T13:10:56;26.00;;;10.48;;
26191;SDS011;13935;55.672;37.764;2023-02-11T13:12:05;24.08;;;10.63;;
26191;SDS011;13935;55.672;37.764;2023-02-11T13:13:38;29.70;;;10.75;;
26191;SDS011;13935;55.672;37.764;2023-02-11T13:14:46;22.20;;;11.05;;
26191;SDS011;13935;55.672;37.764;2023-02-11T13:16:06;23.95;;;11.52;;
26191;SDS011;13935;55.672;37.764;2023-02-11T13:17:30;27.60;;;12.13;;
26191;SDS011;13935;55.672;37.764;2023-02-11T13:18:53;25.42;;;11.15;;
26191;SDS011;13935;55.672;37.764;2023-02-11T13:20:14;22.50;;;10.85;;
26191;SDS011;13935;55.672;37.764;2023-02-11T13:22:00;26.48;;;11.50;;
26191;SDS011;13935;55.672;37.764;2023-02-11T13:23:30;26.67;;;11.88;;
26191;SDS011;13935;55.672;37.764;2023-02-11T13:24:54;23.30;;;11.07;;
26191;SDS011;13935;55.672;37.764;2023-02-11T13:28:25;22.88;;;10.65;;
26191;SDS011;13935;55.672;37.764;2023-02-11T13:30:58;25.88;;;11.07;;
26191;SDS011;13935;55.672;37.764;2023-02-11T13:32:19;24.55;;;11.57;;
26191;SDS011;13935;55.672;37.764;2023-02-11T13:33:32;27.90;;;11.55;;
26191;SDS011;13935;55.672;37.764;2023-02-11T13:40:31;24.63;;;11.55;;
26191;SDS011;13935;55.672;37.764;2023-02-11T13:41:39;23.67;;;11.25;;
26191;SDS011;13935;55.672;37.764;2023-02-11T13:43:57;24.58;;;12.05;;
26191;SDS011;13935;55.672;37.764;2023-02-11T13:48:45;29.48;;;12.90;;
26191;SDS011;13935;55.672;37.764;2023-02-11T13:50:02;29.90;;;12.07;;
26191;SDS011;13935;55.672;37.764;2023-02-11T13:51:17;28.65;;;12.02;;
26191;SDS011;13935;55.672;37.764;2023-02-11T13:52:46;26.80;;;12.75;;
26191;SDS011;13935;55.672;37.764;2023-02-11T13:53:55;31.20;;;12.77;;
26191;SDS011;13935;55.672;37.764;2023-02-11T14:02:31;25.13;;;12.30;;
26191;SDS011;13935;55.672;37.764;2023-02-11T14:06:09;28.50;;;13.10;;
26191;SDS011;13935;55.672;37.764;2023-02-11T14:07:31;29.35;;;13.00;;
26191;SDS011;13935;55.672;37.764;2023-02-11T14:10:50;32.58;;;12.38;;
26191;SDS011;13935;55.672;37.764;2023-02-11T14:12:21;29.13;;;12.35;;
26191;SDS011;13935;55.672;37.764;2023-02-11T14:13:36;26.58;;;12.10;;
26191;SDS011;13935;55.672;37.764;2023-02-11T14:19:56;31.83;;;12.82;;
26191;SDS011;13935;55.672;37.764;2023-02-11T14:21:19;32.08;;;13.13;;
26191;SDS011;13935;55.672;37.764;2023-02-11T14:22:40;32.65;;;12.55;;
26191;SDS011;13935;55.672;37.764;2023-02-11T14:25:15;35.53;;;13.65;;
26191;SDS011;13935;55.672;37.764;2023-02-11T14:28:19;29.17;;;12.85;;
26191;SDS011;13935;55.672;37.764;2023-02-11T14:29:35;31.92;;;13.05;;
26191;SDS011;13935;55.672;37.764;2023-02-11T14:30:55;30.45;;;13.82;;
26191;SDS011;13935;55.672;37.764;2023-02-11T14:33:51;33.60;;;13.35;;
26191;SDS011;13935;55.672;37.764;2023-02-11T14:39:31;35.83;;;13.43;;
26191;SDS011;13935;55.672;37.764;2023-02-11T14:41:05;33.38;;;13.57;;
26191;SDS011;13935;55.672;37.764;2023-02-11T14:42:18;29.52;;;12.57;;
26191;SDS011;13935;55.672;37.764;2023-02-11T14:47:16;31.52;;;11.90;;
26191;SDS011;13935;55.672;37.764;2023-02-11T14:48:35;32.22;;;12.75;;
26191;SDS011;13935;55.672;37.764;2023-02-11T14:49:46;31.42;;;13.13;;
26191;SDS011;13935;55.672;37.764;2023-02-11T14:50:52;31.48;;;12.02;;
26191;SDS011;13935;55.672;37.764;2023-02-11T14:52:03;32.33;;;13.40;;
26191;SDS011;13935;55.672;37.764;2023-02-11T14:53:13;33.58;;;13.27;;
26191;SDS011;13935;55.672;37.764;2023-02-11T14:54:26;32.60;;;14.13;;
26191;SDS011;13935;55.672;37.764;2023-02-11T14:55:38;33.60;;;13.38;;
26191;SDS011;13935;55.672;37.764;2023-02-11T14:56:46;31.25;;;12.93;;
26191;SDS011;13935;55.672;37.764;2023-02-11T14:58:25;33.50;;;13.10;;
26191;SDS011;13935;55.672;37.764;2023-02-11T15:00:02;31.02;;;12.48;;
26191;SDS011;13935;55.672;37.764;2023-02-11T15:01:25;34.55;;;13.60;;
26191;SDS011;13935;55.672;37.764;2023-02-11T15:02:45;32.15;;;13.80;;
26191;SDS011;13935;55.672;37.764;2023-02-11T15:03:55;31.65;;;12.95;;
26191;SDS011;13935;55.672;37.764;2023-02-11T15:06:28;30.10;;;12.35;;
26191;SDS011;13935;55.672;37.764;2023-02-11T15:07:35;31.83;;;13.10;;
26191;SDS011;13935;55.672;37.764;2023-02-11T15:08:41;31.90;;;13.40;;
26191;SDS011;13935;55.672;37.764;2023-02-11T15:14:33;31.27;;;12.25;;
26191;SDS011;13935;55.672;37.764;2023-02-11T15:15:39;29.98;;;12.93;;
26191;SDS011;13935;55.672;37.764;2023-02-11T15:16:43;32.92;;;13.40;;
26191;SDS011;13935;55.672;37.764;2023-02-11T15:17:49;28.58;;;12.10;;
26191;SDS011;13935;55.672;37.764;2023-02-11T15:25:41;33.80;;;11.68;;
26191;SDS011;13935;55.672;37.764;2023-02-11T15:28:44;29.77;;;11.85;;
26191;SDS011;13935;55.672;37.764;2023-02-11T15:29:53;26.25;;;11.77;;
26191;SDS011;13935;55.672;37.764;2023-02-11T15:31:20;36.17;;;14.05;;
26191;SDS011;13935;55.672;37.764;2023-02-11T15:32:33;30.17;;;12.38;;
26191;SDS011;13935;55.672;37.764;2023-02-11T15:33:40;31.55;;;13.23;;
26191;SDS011;13935;55.672;37.764;2023-02-11T15:34:52;29.30;;;13.07;;
26191;SDS011;13935;55.672;37.764;2023-02-11T15:36:08;27.42;;;12.38;;
26191;SDS011;13935;55.672;37.764;2023-02-11T15:37:19;28.70;;;11.77;;
26191;SDS011;13935;55.672;37.764;2023-02-11T15:38:35;26.70;;;12.35;;
26191;SDS011;13935;55.672;37.764;2023-02-11T15:45:09;29.92;;;12.02;;
26191;SDS011;13935;55.672;37.764;2023-02-11T15:46:37;32.13;;;12.50;;
26191;SDS011;13935;55.672;37.764;2023-02-11T15:47:50;31.38;;;12.57;;
26191;SDS011;13935;55.672;37.764;2023-02-11T15:48:58;31.15;;;13.27;;
26191;SDS011;13935;55.672;37.764;2023-02-11T15:56:26;28.20;;;11.45;;
26191;SDS011;13935;55.672;37.764;2023-02-11T15:57:59;30.83;;;11.82;;
26191;SDS011;13935;55.672;37.764;2023-02-11T16:00:44;32.15;;;11.70;;
26191;SDS011;13935;55.672;37.764;2023-02-11T16:01:53;33.03;;;12.98;;
26191;SDS011;13935;55.672;37.764;2023-02-11T16:02:59;28.63;;;12.20;;
26191;SDS011;13935;55.672;37.764;2023-02-11T16:05:52;30.90;;;13.52;;
26191;SDS011;13935;55.672;37.764;2023-02-11T16:07:00;31.80;;;13.30;;
26191;SDS011;13935;55.672;37.764;2023-02-11T16:09:33;29.42;;;12.65;;
26191;SDS011;13935;55.672;37.764;2023-02-11T16:10:40;30.40;;;13.48;;
26191;SDS011;13935;55.672;37.764;2023-02-11T16:12:03;31.00;;;12.98;;
26191;SDS011;13935;55.672;37.764;2023-02-11T16:13:26;30.60;;;13.02;;
26191;SDS011;13935;55.672;37.764;2023-02-11T16:14:42;30.40;;;11.93;;
26191;SDS011;13935;55.672;37.764;2023-02-11T16:15:57;30.77;;;13.18;;
26191;SDS011;13935;55.672;37.764;2023-02-11T16:26:44;29.67;;;11.15;;
26191;SDS011;13935;55.672;37.764;2023-02-11T16:27:59;28.70;;;12.02;;
26191;SDS011;13935;55.672;37.764;2023-02-11T16:29:14;31.55;;;12.60;;
26191;SDS011;13935;55.672;37.764;2023-02-11T16:30:41;34.97;;;12.70;;
26191;SDS011;13935;55.672;37.764;2023-02-11T16:31:46;29.63;;;12.38;;
26191;SDS011;13935;55.672;37.764;2023-02-11T16:32:52;32.63;;;13.40;;
26191;SDS011;13935;55.672;37.764;2023-02-11T16:33:55;34.55;;;14.95;;
26191;SDS011;13935;55.672;37.764;2023-02-11T16:35:00;34.10;;;12.38;;
26191;SDS011;13935;55.672;37.764;2023-02-11T16:36:26;32.67;;;12.82;;
26191;SDS011;13935;55.672;37.764;2023-02-11T16:37:30;28.60;;;12.98;;
26191;SDS011;13935;55.672;37.764;2023-02-11T16:38:34;33.42;;;13.38;;
26191;SDS011;13935;55.672;37.764;2023-02-11T16:39:40;32.47;;;12.80;;
26191;SDS011;13935;55.672;37.764;2023-02-11T16:40:44;27.17;;;12.43;;
26191;SDS011;13935;55.672;37.764;2023-02-11T16:41:54;30.58;;;12.60;;
26191;SDS011;13935;55.672;37.764;2023-02-11T16:42:59;32.95;;;12.90;;
26191;SDS011;13935;55.672;37.764;2023-02-11T16:44:13;31.05;;;12.73;;
26191;SDS011;13935;55.672;37.764;2023-02-11T16:45:19;28.73;;;12.23;;
26191;SDS011;13935;55.672;37.764;2023-02-11T16:46:24;27.40;;;11.75;;
26191;SDS011;13935;55.672;37.764;2023-02-11T16:47:36;33.75;;;12.70;;
26191;SDS011;13935;55.672;37.764;2023-02-11T16:48:55;29.85;;;12.00;;
26191;SDS011;13935;55.672;37.764;2023-02-11T16:50:24;30.52;;;12.40;;
26191;SDS011;13935;55.672;37.764;2023-02-11T16:58:40;35.42;;;12.50;;
26191;SDS011;13935;55.672;37.764;2023-02-11T16:59:59;29.08;;;11.50;;
26191;SDS011;13935;55.672;37.764;2023-02-11T17:01:20;34.63;;;12.85;;
26191;SDS011;13935;55.672;37.764;2023-02-11T17:02:35;28.75;;;12.73;;
26191;SDS011;13935;55.672;37.764;2023-02-11T17:05:40;30.92;;;13.30;;
26191;SDS011;13935;55.672;37.764;2023-02-11T17:07:21;30.42;;;12.25;;
26191;SDS011;13935;55.672;37.764;2023-02-11T17:08:31;36.85;;;12.52;;
26191;SDS011;13935;55.672;37.764;2023-02-11T17:09:38;32.28;;;12.75;;
26191;SDS011;13935;55.672;37.764;2023-02-11T17:10:48;28.80;;;13.02;;
26191;SDS011;13935;55.672;37.764;2023-02-11T17:12:05;29.63;;;12.75;;
26191;SDS011;13935;55.672;37.764;2023-02-11T17:13:36;32.00;;;12.55;;
26191;SDS011;13935;55.672;37.764;2023-02-11T17:14:50;28.20;;;12.10;;
26191;SDS011;13935;55.672;37.764;2023-02-11T17:16:01;29.88;;;12.23;;
26191;SDS011;13935;55.672;37.764;2023-02-11T17:17:17;33.10;;;12.88;;
26191;SDS011;13935;55.672;37.764;2023-02-11T17:18:21;40.88;;;16.08;;
26191;SDS011;13935;55.672;37.764;2023-02-11T17:19:31;30.17;;;13.32;;
